createdAt,value
2022-08-20T00:00:40.780Z,24.38
2022-08-20T00:03:20.766Z,24.46
2022-08-20T00:05:58.826Z,24.37
2022-08-20T00:08:30.822Z,24.53
2022-08-20T00:11:02.864Z,24.54
2022-08-20T00:13:36.777Z,24.59
2022-08-20T00:16:09.902Z,24.47
2022-08-20T00:18:41.940Z,24.44
2022-08-20T00:21:18.867Z,24.53
2022-08-20T00:23:51.556Z,24.50
2022-08-20T00:26:23.687Z,24.54
2022-08-20T00:28:55.493Z,24.62
2022-08-20T00:31:26.755Z,24.63
2022-08-20T00:33:59.249Z,24.43
2022-08-20T00:36:32.738Z,24.34
2022-08-20T00:39:03.210Z,24.42
2022-08-20T00:41:34.296Z,24.39
2022-08-20T00:44:14.018Z,24.42
2022-08-20T00:46:46.151Z,24.54
2022-08-20T00:49:23.422Z,24.51
2022-08-20T00:52:09.691Z,24.47
2022-08-20T00:54:49.560Z,24.50
2022-08-20T00:57:58.958Z,24.40
2022-08-20T01:00:07.370Z,24.44
2022-08-20T01:02:38.993Z,24.28
2022-08-20T01:05:11.261Z,24.18
2022-08-20T01:07:42.943Z,24.36
2022-08-20T01:10:21.077Z,24.31
2022-08-20T01:12:59.232Z,24.26
2022-08-20T01:15:30.952Z,24.33
2022-08-20T01:18:02.954Z,24.19
2022-08-20T01:20:36.745Z,24.23
2022-08-20T01:23:28.468Z,24.22
2022-08-20T01:26:20.293Z,24.23
2022-08-20T01:28:57.498Z,24.34
2022-08-20T01:31:31.827Z,24.27
2022-08-20T01:34:05.264Z,24.21
2022-08-20T01:36:46.484Z,24.12
2022-08-20T01:39:20.752Z,23.93
2022-08-20T01:42:07.465Z,24.13
2022-08-20T01:44:40.939Z,24.17
2022-08-20T01:47:15.918Z,24.14
2022-08-20T01:49:47.886Z,23.94
2022-08-20T01:52:24.669Z,24.12
2022-08-20T01:55:06.898Z,24.09
2022-08-20T01:57:38.984Z,23.67
2022-08-20T02:00:19.722Z,23.28
2022-08-20T02:02:46.327Z,23.46
2022-08-20T02:05:18.799Z,23.64
2022-08-20T02:07:50.338Z,23.76
2022-08-20T02:10:21.545Z,23.86
2022-08-20T02:12:53.005Z,23.65
2022-08-20T02:15:34.493Z,23.87
2022-08-20T02:17:58.373Z,23.92
2022-08-20T02:20:30.648Z,24.00
2022-08-20T02:23:03.871Z,24.00
2022-08-20T02:25:37.598Z,24.03
2022-08-20T02:28:11.500Z,23.93
2022-08-20T02:30:45.417Z,23.82
2022-08-20T02:33:19.246Z,23.85
2022-08-20T02:35:51.657Z,23.80
2022-08-20T02:38:22.490Z,23.90
2022-08-20T02:40:53.343Z,23.46
2022-08-20T02:43:24.714Z,23.71
2022-08-20T02:45:56.071Z,23.64
2022-08-20T02:48:27.660Z,23.82
2022-08-20T02:51:04.547Z,23.86
2022-08-20T02:53:38.979Z,23.55
2022-08-20T02:56:12.333Z,23.75
2022-08-20T02:58:43.438Z,23.76
2022-08-20T03:01:17.349Z,23.83
2022-08-20T03:03:48.758Z,23.87
2022-08-20T03:06:19.689Z,23.71
2022-08-20T03:08:50.917Z,23.80
2022-08-20T03:11:22.107Z,23.86
2022-08-20T03:13:52.970Z,23.86
2022-08-20T03:16:24.259Z,23.75
2022-08-20T03:18:56.219Z,23.79
2022-08-20T03:21:27.217Z,23.71
2022-08-20T03:23:58.019Z,23.73
2022-08-20T03:26:29.174Z,23.76
2022-08-20T03:29:00.346Z,23.87
2022-08-20T03:31:31.609Z,23.73
2022-08-20T03:34:02.560Z,23.68
2022-08-20T03:36:34.129Z,23.60
2022-08-20T03:39:09.688Z,23.65
2022-08-20T03:41:40.962Z,23.55
2022-08-20T03:44:11.848Z,23.53
2022-08-20T03:46:42.769Z,23.46
2022-08-20T03:49:15.151Z,23.46
2022-08-20T03:51:58.278Z,23.44
2022-08-20T03:54:18.809Z,23.42
2022-08-20T03:56:50.075Z,23.38
2022-08-20T03:59:21.020Z,23.45
2022-08-20T04:01:52.906Z,23.44
2022-08-20T04:04:23.952Z,23.43
2022-08-20T04:06:55.023Z,23.37
2022-08-20T04:09:25.867Z,23.37
2022-08-20T04:11:58.360Z,23.37
2022-08-20T04:14:30.108Z,23.45
2022-08-20T04:17:02.833Z,23.46
2022-08-20T04:19:34.425Z,22.86
2022-08-20T04:22:05.692Z,22.74
2022-08-20T04:24:37.621Z,22.63
2022-08-20T04:27:09.098Z,22.92
2022-08-20T04:29:43.955Z,23.12
2022-08-20T04:32:14.818Z,23.22
2022-08-20T04:34:47.451Z,23.27
2022-08-20T04:37:23.682Z,23.31
2022-08-20T04:40:12.250Z,23.28
2022-08-20T04:42:43.553Z,23.15
2022-08-20T04:45:14.443Z,23.22
2022-08-20T04:47:47.144Z,23.21
2022-08-20T04:50:19.057Z,23.06
2022-08-20T04:52:49.977Z,23.12
2022-08-20T04:55:21.369Z,23.28
2022-08-20T04:57:55.084Z,23.27
2022-08-20T05:00:26.422Z,23.13
2022-08-20T05:02:57.381Z,23.20
2022-08-20T05:05:28.973Z,23.16
2022-08-20T05:07:59.697Z,23.22
2022-08-20T05:10:32.030Z,23.40
2022-08-20T05:13:02.839Z,23.44
2022-08-20T05:15:35.041Z,23.45
2022-08-20T05:18:08.275Z,23.27
2022-08-20T05:20:41.250Z,23.29
2022-08-20T05:23:15.179Z,23.45
2022-08-20T05:25:48.341Z,23.50
2022-08-20T05:28:22.209Z,23.45
2022-08-20T05:30:54.369Z,23.37
2022-08-20T05:33:25.733Z,23.29
2022-08-20T05:35:58.007Z,23.49
2022-08-20T05:38:31.688Z,23.63
2022-08-20T05:41:02.821Z,23.66
2022-08-20T05:43:34.062Z,23.74
2022-08-20T05:46:06.685Z,23.75
2022-08-20T05:48:37.638Z,23.53
2022-08-20T05:51:12.082Z,23.46
2022-08-20T05:53:42.027Z,23.67
2022-08-20T05:56:13.233Z,23.85
2022-08-20T05:58:45.738Z,23.80
2022-08-20T06:01:16.653Z,23.94
2022-08-20T06:04:05.747Z,23.95
2022-08-20T06:06:45.738Z,23.90
2022-08-20T06:09:10.128Z,23.89
2022-08-20T06:11:41.492Z,23.78
2022-08-20T06:14:12.865Z,24.06
2022-08-20T06:16:57.191Z,24.05
2022-08-20T06:19:17.305Z,24.03
2022-08-20T06:21:51.454Z,24.02
2022-08-20T06:24:22.501Z,23.81
2022-08-20T06:27:01.639Z,23.73
2022-08-20T06:29:35.738Z,23.94
2022-08-20T06:32:07.377Z,23.83
2022-08-20T06:34:50.202Z,24.07
2022-08-20T06:37:20.483Z,24.19
2022-08-20T06:39:52.967Z,24.50
2022-08-20T06:42:26.539Z,24.27
2022-08-20T06:45:00.156Z,24.49
2022-08-20T06:47:31.713Z,24.69
2022-08-20T06:50:02.899Z,24.46
2022-08-20T06:52:51.625Z,25.04
2022-08-20T06:55:08.335Z,25.29
2022-08-20T06:57:40.266Z,25.12
2022-08-20T07:00:14.974Z,25.51
2022-08-20T07:02:48.505Z,25.41
2022-08-20T07:07:51.287Z,25.39
2022-08-20T07:10:24.997Z,25.32
2022-08-20T07:12:58.052Z,25.29
2022-08-20T07:15:29.295Z,24.89
2022-08-20T07:18:04.549Z,24.86
2022-08-20T07:20:38.592Z,24.98
2022-08-20T07:23:12.110Z,25.37
2022-08-20T07:25:45.472Z,25.63
2022-08-20T07:28:19.522Z,25.81
2022-08-20T07:31:13.856Z,25.68
2022-08-20T07:33:42.188Z,25.91
2022-08-20T07:36:15.788Z,26.07
2022-08-20T07:38:48.814Z,25.58
2022-08-20T07:41:20.751Z,25.83
2022-08-20T07:43:53.619Z,25.99
2022-08-20T07:46:25.346Z,25.95
2022-08-20T07:48:58.171Z,25.47
2022-08-20T07:51:29.922Z,26.00
2022-08-20T07:54:00.975Z,26.08
2022-08-20T07:56:32.571Z,25.73
2022-08-20T07:59:05.615Z,25.39
2022-08-20T08:01:36.743Z,25.53
2022-08-20T08:04:08.073Z,25.82
2022-08-20T08:06:42.312Z,25.29
2022-08-20T08:09:15.718Z,25.85
2022-08-20T08:11:52.931Z,25.49
2022-08-20T08:14:27.319Z,25.85
2022-08-20T08:17:01.388Z,25.94
2022-08-20T08:19:37.183Z,26.24
2022-08-20T08:22:13.827Z,26.32
2022-08-20T08:24:57.678Z,26.27
2022-08-20T08:27:20.984Z,26.30
2022-08-20T08:29:53.683Z,26.41
2022-08-20T08:32:25.169Z,26.12
2022-08-20T08:34:56.487Z,26.52
2022-08-20T08:37:30.684Z,26.31
2022-08-20T08:40:00.909Z,26.46
2022-08-20T08:42:42.588Z,26.34
2022-08-20T08:45:11.851Z,26.66
2022-08-20T08:47:43.861Z,27.00
2022-08-20T08:50:43.791Z,26.17
2022-08-20T08:52:59.327Z,26.65
2022-08-20T08:55:32.228Z,27.04
2022-08-20T08:58:17.126Z,27.07
2022-08-20T09:00:48.770Z,26.96
2022-08-20T09:03:14.591Z,27.16
2022-08-20T09:05:54.220Z,27.00
2022-08-20T09:08:28.120Z,26.85
2022-08-20T09:11:04.838Z,27.01
2022-08-20T09:13:36.888Z,26.97
2022-08-20T09:16:08.300Z,27.34
2022-08-20T09:18:39.727Z,27.43
2022-08-20T09:21:11.840Z,27.34
2022-08-20T09:23:43.371Z,26.85
2022-08-20T09:26:14.336Z,27.28
2022-08-20T09:28:51.226Z,26.54
2022-08-20T09:31:18.790Z,27.15
2022-08-20T09:33:52.071Z,27.22
2022-08-20T09:36:29.248Z,27.22
2022-08-20T09:38:56.398Z,27.24
2022-08-20T09:41:27.539Z,27.29
2022-08-20T09:43:58.797Z,27.32
2022-08-20T09:46:29.784Z,27.29
2022-08-20T09:49:01.061Z,26.72
2022-08-20T09:51:33.065Z,27.09
2022-08-20T09:54:05.632Z,27.28
2022-08-20T09:56:37.052Z,27.55
2022-08-20T09:59:08.252Z,27.14
2022-08-20T10:01:39.293Z,27.57
2022-08-20T10:04:10.432Z,27.77
2022-08-20T10:06:43.297Z,27.68
2022-08-20T10:09:14.576Z,27.65
2022-08-20T10:11:45.693Z,27.66
2022-08-20T10:14:16.650Z,27.67
2022-08-20T10:16:50.365Z,27.44
2022-08-20T10:19:21.455Z,27.78
2022-08-20T10:21:56.161Z,27.85
2022-08-20T10:24:27.423Z,27.84
2022-08-20T10:27:00.705Z,27.90
2022-08-20T10:29:34.067Z,27.45
2022-08-20T10:32:16.730Z,27.74
2022-08-20T10:34:49.224Z,27.52
2022-08-20T10:37:22.680Z,27.62
2022-08-20T10:39:54.648Z,27.72
2022-08-20T10:42:26.495Z,27.97
2022-08-20T10:44:57.579Z,28.06
2022-08-20T10:47:35.114Z,28.27
2022-08-20T10:50:09.204Z,28.28
2022-08-20T10:52:40.639Z,28.49
2022-08-20T10:55:13.164Z,28.70
2022-08-20T10:57:46.450Z,28.85
2022-08-20T11:00:19.662Z,28.91
2022-08-20T11:02:51.214Z,28.94
2022-08-20T11:05:23.374Z,28.64
2022-08-20T11:08:01.308Z,28.77
2022-08-20T11:10:34.548Z,28.79
2022-08-20T11:13:07.239Z,29.09
2022-08-20T11:15:41.150Z,28.51
2022-08-20T11:18:13.498Z,28.73
2022-08-20T11:20:44.614Z,29.17
2022-08-20T11:23:15.535Z,29.41
2022-08-20T11:25:47.133Z,28.69
2022-08-20T11:28:31.248Z,29.00
2022-08-20T11:30:52.004Z,28.91
2022-08-20T11:33:23.200Z,29.44
2022-08-20T11:35:54.278Z,29.50
2022-08-20T11:38:25.865Z,29.32
2022-08-20T11:40:56.969Z,29.11
2022-08-20T11:43:28.474Z,29.09
2022-08-20T11:46:00.111Z,29.33
2022-08-20T11:48:31.372Z,29.73
2022-08-20T11:51:02.775Z,29.90
2022-08-20T11:53:33.946Z,29.67
2022-08-20T11:56:07.066Z,30.12
2022-08-20T11:58:38.217Z,30.09
2022-08-20T12:01:09.981Z,29.56
2022-08-20T12:03:40.975Z,29.99
2022-08-20T12:06:12.257Z,30.26
2022-08-20T12:08:43.537Z,30.15
2022-08-20T12:11:15.688Z,29.85
2022-08-20T12:13:49.236Z,30.19
2022-08-20T12:16:21.419Z,30.28
2022-08-20T12:18:54.297Z,30.32
2022-08-20T12:21:31.952Z,30.46
2022-08-20T12:24:00.374Z,30.13
2022-08-20T12:26:31.406Z,29.80
2022-08-20T12:29:02.687Z,30.46
2022-08-20T12:31:33.847Z,30.42
2022-08-20T12:34:06.417Z,30.45
2022-08-20T12:36:39.097Z,29.77
2022-08-20T12:39:12.118Z,29.82
2022-08-20T12:41:44.800Z,29.60
2022-08-20T12:44:17.466Z,29.97
2022-08-20T12:46:50.225Z,30.08
2022-08-20T12:49:24.074Z,30.44
2022-08-20T12:51:55.158Z,30.25
2022-08-20T12:54:27.956Z,30.21
2022-08-20T12:56:59.479Z,30.29
2022-08-20T12:59:33.727Z,30.49
2022-08-20T13:02:13.904Z,30.18
2022-08-20T13:04:39.926Z,30.14
2022-08-20T13:07:13.361Z,30.38
2022-08-20T13:09:45.147Z,29.99
2022-08-20T13:12:16.279Z,30.57
2022-08-20T13:14:47.518Z,30.47
2022-08-20T13:17:19.875Z,30.38
2022-08-20T13:19:53.048Z,30.68
2022-08-20T13:22:25.258Z,30.75
2022-08-20T13:24:56.558Z,30.94
2022-08-20T13:27:28.339Z,30.41
2022-08-20T13:29:59.598Z,30.39
2022-08-20T13:32:30.680Z,30.59
2022-08-20T13:35:01.938Z,30.68
2022-08-20T13:37:33.118Z,30.85
2022-08-20T13:40:05.143Z,30.75
2022-08-20T13:42:37.698Z,30.63
2022-08-20T13:45:10.047Z,30.73
2022-08-20T13:47:42.441Z,30.34
2022-08-20T13:50:16.276Z,30.09
2022-08-20T13:52:48.395Z,29.90
2022-08-20T13:55:21.939Z,29.99
2022-08-20T13:57:54.189Z,29.78
2022-08-20T14:00:31.659Z,30.07
2022-08-20T14:03:07.617Z,30.29
2022-08-20T14:05:39.541Z,30.05
2022-08-20T14:08:16.392Z,29.63
2022-08-20T14:10:51.871Z,29.66
2022-08-20T14:13:27.180Z,29.92
2022-08-20T14:15:58.126Z,30.33
2022-08-20T14:18:29.634Z,30.25
2022-08-20T14:21:00.492Z,30.27
2022-08-20T14:23:31.748Z,29.97
2022-08-20T14:26:04.447Z,30.07
2022-08-20T14:28:37.037Z,30.03
2022-08-20T14:31:08.308Z,30.05
2022-08-20T14:33:44.462Z,29.94
2022-08-20T14:36:12.427Z,29.92
2022-08-20T14:38:45.181Z,29.93
2022-08-20T14:41:16.640Z,29.94
2022-08-20T14:43:47.508Z,29.70
2022-08-20T14:46:18.610Z,29.82
2022-08-20T14:48:53.300Z,29.87
2022-08-20T14:51:22.561Z,29.65
2022-08-20T14:53:53.599Z,29.69
2022-08-20T14:56:24.785Z,29.63
2022-08-20T14:58:55.889Z,29.85
2022-08-20T15:01:27.370Z,29.46
2022-08-20T15:04:00.049Z,29.57
2022-08-20T15:06:31.684Z,29.45
2022-08-20T15:09:02.855Z,29.61
2022-08-20T15:11:37.093Z,29.57
2022-08-20T15:14:08.722Z,29.53
2022-08-20T15:16:39.797Z,29.82
2022-08-20T15:19:10.790Z,29.60
2022-08-20T15:21:45.063Z,29.54
2022-08-20T15:24:19.130Z,29.58
2022-08-20T15:26:49.570Z,29.25
2022-08-20T15:29:23.218Z,29.45
2022-08-20T15:31:53.748Z,29.27
2022-08-20T15:34:25.000Z,29.47
2022-08-20T15:36:57.251Z,29.39
2022-08-20T15:39:30.208Z,29.09
2022-08-20T15:42:01.439Z,29.35
2022-08-20T15:44:33.070Z,29.46
2022-08-20T15:47:26.615Z,29.32
2022-08-20T15:50:09.133Z,29.38
2022-08-20T15:52:42.207Z,29.27
2022-08-20T15:55:17.073Z,29.31
2022-08-20T15:57:54.851Z,29.14
2022-08-20T16:00:30.135Z,29.29
2022-08-20T16:03:16.037Z,29.21
2022-08-20T16:06:08.296Z,29.29
2022-08-20T16:09:02.143Z,29.08
2022-08-20T16:11:55.661Z,29.03
2022-08-20T16:14:30.102Z,29.23
2022-08-20T16:17:08.565Z,29.24
2022-08-20T16:20:01.360Z,29.19
2022-08-20T16:22:33.630Z,29.18
2022-08-20T16:25:05.626Z,29.18
2022-08-20T16:27:42.113Z,29.24
2022-08-20T16:30:20.650Z,29.18
2022-08-20T16:32:59.169Z,29.22
2022-08-20T16:35:45.463Z,29.25
2022-08-20T16:38:24.180Z,29.20
2022-08-20T16:41:01.383Z,29.18
2022-08-20T16:43:38.450Z,29.17
2022-08-20T16:46:22.465Z,29.05
2022-08-20T16:49:00.574Z,29.03
2022-08-20T16:51:52.220Z,28.94
2022-08-20T16:54:28.461Z,29.05
2022-08-20T16:57:05.250Z,28.78
2022-08-20T16:59:38.537Z,28.85
2022-08-20T17:02:12.229Z,28.77
2022-08-20T17:04:58.797Z,28.70
2022-08-20T17:07:33.517Z,28.37
2022-08-20T17:10:12.553Z,28.71
2022-08-20T17:12:47.167Z,28.49
2022-08-20T17:15:24.110Z,28.50
2022-08-20T17:17:56.377Z,28.66
2022-08-20T17:20:29.210Z,28.61
2022-08-20T17:23:15.757Z,28.57
2022-08-20T17:25:49.644Z,28.48
2022-08-20T17:28:23.658Z,28.29
2022-08-20T17:30:56.260Z,28.51
2022-08-20T17:33:36.878Z,28.23
2022-08-20T17:36:14.156Z,28.36
2022-08-20T17:39:08.526Z,28.16
2022-08-20T17:41:39.765Z,27.93
2022-08-20T17:44:13.506Z,28.12
2022-08-20T17:46:48.188Z,28.14
2022-08-20T17:49:24.880Z,28.11
2022-08-20T17:51:59.533Z,27.91
2022-08-20T17:54:33.506Z,27.76
2022-08-20T17:57:10.498Z,27.68
2022-08-20T18:00:01.377Z,26.54
2022-08-20T18:02:23.390Z,26.04
2022-08-20T18:04:57.217Z,25.89
2022-08-20T18:07:34.560Z,25.55
2022-08-20T18:10:17.579Z,25.17
2022-08-20T18:12:56.011Z,24.78
2022-08-20T18:15:30.443Z,24.45
2022-08-20T18:18:22.236Z,24.60
2022-08-20T18:21:08.693Z,25.09
2022-08-20T18:23:42.663Z,25.12
2022-08-20T18:26:34.973Z,25.11
2022-08-20T18:29:14.765Z,24.52
2022-08-20T18:31:54.730Z,24.72
2022-08-20T18:34:31.688Z,24.94
2022-08-20T18:37:08.299Z,24.61
2022-08-20T18:39:42.596Z,24.53
2022-08-20T18:42:29.453Z,24.30
2022-08-20T18:45:01.636Z,24.22
2022-08-20T18:47:35.879Z,24.34
2022-08-20T18:50:17.002Z,24.37
2022-08-20T18:52:45.585Z,24.68
2022-08-20T18:55:36.513Z,24.66
2022-08-20T18:58:11.002Z,24.47
2022-08-20T19:00:52.356Z,24.39
2022-08-20T19:03:32.319Z,24.53
2022-08-20T19:06:08.211Z,24.11
2022-08-20T19:08:44.178Z,24.28
2022-08-20T19:11:33.752Z,24.39
2022-08-20T19:14:41.323Z,24.42
2022-08-20T19:17:49.496Z,24.28
2022-08-20T19:20:26.191Z,24.34
2022-08-20T19:23:03.883Z,24.46
2022-08-20T19:25:41.160Z,24.86
2022-08-20T19:28:24.626Z,24.83
2022-08-20T19:30:56.504Z,24.47
2022-08-20T19:33:30.637Z,24.11
2022-08-20T19:36:17.885Z,24.05
2022-08-20T19:38:53.701Z,23.94
2022-08-20T19:41:34.260Z,23.78
2022-08-20T19:44:05.749Z,23.90
2022-08-20T19:46:42.222Z,24.15
2022-08-20T19:49:19.810Z,24.44
2022-08-20T19:52:17.679Z,24.46
2022-08-20T19:54:55.799Z,23.97
2022-08-20T19:57:28.819Z,24.34
2022-08-20T20:00:04.958Z,24.20
2022-08-20T20:02:37.573Z,24.49
2022-08-20T20:05:10.576Z,24.58
2022-08-20T20:07:47.198Z,24.57
2022-08-20T20:10:38.051Z,24.48
2022-08-20T20:13:14.796Z,24.16
2022-08-20T20:15:46.609Z,24.55
2022-08-20T20:18:19.708Z,24.51
2022-08-20T20:20:57.850Z,24.53
2022-08-20T20:23:45.452Z,24.17
2022-08-20T20:26:10.327Z,24.19
2022-08-20T20:28:47.299Z,24.62
2022-08-20T20:31:25.089Z,24.38
2022-08-20T20:34:01.951Z,24.44
2022-08-20T20:36:49.038Z,24.41
2022-08-20T20:39:36.535Z,24.36
2022-08-20T20:42:11.359Z,24.02
2022-08-20T20:44:46.339Z,23.87
2022-08-20T20:47:33.387Z,24.28
2022-08-20T20:50:11.930Z,24.39
2022-08-20T20:52:56.295Z,24.39
2022-08-20T20:55:36.232Z,24.14
2022-08-20T20:58:07.689Z,24.37
2022-08-20T21:00:39.378Z,23.92
2022-08-20T21:03:10.984Z,24.25
2022-08-20T21:05:42.653Z,24.33
2022-08-20T21:08:17.661Z,24.07
2022-08-20T21:10:50.979Z,24.05
2022-08-20T21:13:22.902Z,23.28
2022-08-20T21:15:55.118Z,23.67
2022-08-20T21:18:26.534Z,23.51
2022-08-20T21:20:59.520Z,23.58
2022-08-20T21:23:41.299Z,23.45
2022-08-20T21:26:08.167Z,23.37
2022-08-20T21:28:40.294Z,23.28
2022-08-20T21:31:12.507Z,23.61
2022-08-20T21:33:43.920Z,23.85
2022-08-20T21:36:15.943Z,23.79
2022-08-20T21:38:49.876Z,23.71
2022-08-20T21:41:29.881Z,24.06
2022-08-20T21:44:01.754Z,23.57
2022-08-20T21:46:33.992Z,23.67
2022-08-20T21:49:06.032Z,23.36
2022-08-20T21:51:38.432Z,23.58
2022-08-20T21:54:10.005Z,23.46
2022-08-20T21:56:42.963Z,23.47
2022-08-20T21:59:16.453Z,23.60
2022-08-20T22:01:48.033Z,23.68
2022-08-20T22:04:20.084Z,23.66
2022-08-20T22:06:52.804Z,23.49
2022-08-20T22:09:25.250Z,23.52
2022-08-20T22:11:57.559Z,23.59
2022-08-20T22:14:29.604Z,23.51
2022-08-20T22:17:03.797Z,23.70
2022-08-20T22:19:34.817Z,23.51
2022-08-20T22:22:07.437Z,23.71
2022-08-20T22:24:40.437Z,23.68
2022-08-20T22:27:13.697Z,23.34
2022-08-20T22:29:45.176Z,23.56
2022-08-20T22:32:18.445Z,23.66
2022-08-20T22:34:52.829Z,23.69
2022-08-20T22:37:24.471Z,23.73
2022-08-20T22:39:57.650Z,23.60
2022-08-20T22:42:29.049Z,23.73
2022-08-20T22:45:01.091Z,23.74
2022-08-20T22:47:33.890Z,23.64
2022-08-20T22:50:08.210Z,23.27
2022-08-20T22:52:44.317Z,23.04
2022-08-20T22:55:17.024Z,23.26
2022-08-20T22:57:50.050Z,22.99
2022-08-20T23:00:25.130Z,23.23
2022-08-20T23:02:59.477Z,23.20
2022-08-20T23:05:33.383Z,23.18
2022-08-20T23:08:05.793Z,23.08
2022-08-20T23:10:38.518Z,23.15
2022-08-20T23:13:09.842Z,23.08
2022-08-20T23:15:45.320Z,22.85
2022-08-20T23:18:17.984Z,22.92
2022-08-20T23:20:51.836Z,22.93
2022-08-20T23:23:23.413Z,23.21
2022-08-20T23:25:55.190Z,23.21
2022-08-20T23:28:27.289Z,22.95
2022-08-20T23:30:58.372Z,23.27
2022-08-20T23:33:29.255Z,23.23
2022-08-20T23:36:02.759Z,23.21
2022-08-20T23:38:33.809Z,23.29
2022-08-20T23:41:04.878Z,23.21
2022-08-20T23:43:36.357Z,23.19
2022-08-20T23:46:09.139Z,23.16
2022-08-20T23:48:40.588Z,23.31
2022-08-20T23:51:13.109Z,23.44
2022-08-20T23:53:44.186Z,23.22
2022-08-20T23:56:15.643Z,23.26
2022-08-20T23:58:46.707Z,23.24
